Time;durP1;ratioP1;P1;durP2;ratioP2;P2;SDS_P1;SDS_P2;PMS_P1;PMS_P2;Temp;Humidity;BMP_temperature;BMP_pressure;BME280_temperature;BME280_humidity;BME280_pressure;Samples;Min_cycle;Max_cycle;Signal;HPM_P1;HPM_P2
2023/07/22 00:01:21;;;;;;;7.32;3.70;;;14.80;99.90;;;;;;5055992;28;20202;-76
2023/07/22 00:04:27;;;;;;;7.95;3.63;;;14.80;99.90;;;;;;5055474;28;20174;-76
2023/07/22 00:06:53;;;;;;;3.60;3.28;;;14.80;99.90;;;;;;5055774;28;20194;-76
2023/07/22 00:09:19;;;;;;;6.50;3.42;;;14.70;99.90;;;;;;5055623;28;20239;-76
2023/07/22 00:11:44;;;;;;;4.72;3.50;;;14.60;99.90;;;;;;5055363;28;20170;-76
2023/07/22 00:14:10;;;;;;;4.90;3.80;;;14.60;99.90;;;;;;5055579;28;20525;-76
2023/07/22 00:16:35;;;;;;;5.22;3.30;;;14.50;99.90;;;;;;5056037;28;20201;-76
2023/07/22 00:19:01;;;;;;;6.10;3.90;;;14.50;99.90;;;;;;5055440;28;20178;-76
2023/07/22 00:21:29;;;;;;;7.90;3.78;;;14.40;99.90;;;;;;5055506;28;20648;-76
2023/07/22 00:23:54;;;;;;;9.40;3.75;;;14.30;99.90;;;;;;5056274;28;20166;-76
2023/07/22 00:26:20;;;;;;;8.35;3.90;;;14.20;99.90;;;;;;5055274;28;20190;-76
2023/07/22 00:28:45;;;;;;;14.85;4.18;;;14.10;99.90;;;;;;5055366;28;20174;-76
2023/07/22 00:31:11;;;;;;;8.57;4.10;;;14.00;99.90;;;;;;5055278;28;20229;-76
2023/07/22 00:33:36;;;;;;;12.93;4.13;;;14.00;99.90;;;;;;5055159;28;20706;-76
2023/07/22 00:36:03;;;;;;;9.02;3.85;;;13.90;99.90;;;;;;5054737;28;20206;-76
2023/07/22 00:38:28;;;;;;;7.25;4.05;;;13.80;99.90;;;;;;5054876;28;20185;-76
2023/07/22 00:40:54;;;;;;;10.48;4.00;;;13.80;99.90;;;;;;5054726;28;20210;-76
2023/07/22 00:43:19;;;;;;;14.27;4.00;;;13.80;99.90;;;;;;5054959;28;20228;-76
2023/07/22 00:45:45;;;;;;;10.38;4.45;;;13.80;99.90;;;;;;5054913;28;20190;-76
2023/07/22 00:48:13;;;;;;;5.90;4.07;;;13.70;99.90;;;;;;5054948;28;20174;-76
2023/07/22 00:50:39;;;;;;;8.35;4.10;;;13.70;99.90;;;;;;5054930;28;20225;-76
2023/07/22 00:53:04;;;;;;;7.50;4.05;;;13.60;99.90;;;;;;5055766;28;20170;-76
2023/07/22 00:55:33;;;;;;;9.35;3.95;;;13.60;99.90;;;;;;5054708;28;20232;-76
2023/07/22 00:57:59;;;;;;;8.10;4.25;;;13.70;99.90;;;;;;5054426;28;20178;-76
2023/07/22 01:16:06;;;;;;;4.35;3.95;;;13.30;99.90;;;;;;5835146;23;20275;-75
2023/07/22 01:18:33;;;;;;;8.52;4.18;;;13.20;99.90;;;;;;4975796;28;20177;-75
2023/07/22 01:20:59;;;;;;;8.15;4.10;;;13.20;99.90;;;;;;4976686;28;20224;-76
2023/07/22 01:26:47;;;;;;;11.80;4.22;;;13.10;99.90;;;;;;4977083;28;20196;-76
2023/07/22 01:29:13;;;;;;;10.02;4.10;;;13.10;99.90;;;;;;4975651;28;20185;-76
2023/07/22 01:31:39;;;;;;;8.23;4.20;;;13.00;99.90;;;;;;4975568;28;20173;-76
2023/07/22 01:34:05;;;;;;;14.25;3.97;;;12.90;99.90;;;;;;4975405;28;20181;-76
2023/07/22 01:36:30;;;;;;;12.77;4.63;;;12.90;99.90;;;;;;4976088;28;20211;-76
2023/07/22 01:38:56;;;;;;;11.65;4.40;;;12.80;99.90;;;;;;4976142;28;20209;-76
2023/07/22 01:41:21;;;;;;;9.23;4.25;;;12.70;99.90;;;;;;4976311;28;20706;-76
2023/07/22 01:43:47;;;;;;;10.50;4.57;;;12.70;99.90;;;;;;4975442;28;20714;-76
2023/07/22 01:46:12;;;;;;;14.25;4.00;;;12.70;99.90;;;;;;4975180;28;20201;-76
2023/07/22 01:48:38;;;;;;;7.75;4.50;;;12.60;99.90;;;;;;4975493;28;20201;-76
2023/07/22 01:51:05;;;;;;;8.50;4.57;;;12.50;99.90;;;;;;4975240;28;20220;-76
2023/07/22 01:53:30;;;;;;;8.10;4.50;;;12.40;99.90;;;;;;4976406;28;20177;-76
2023/07/22 01:55:56;;;;;;;6.25;4.20;;;12.40;99.90;;;;;;4975611;28;20573;-76
2023/07/22 01:58:21;;;;;;;6.18;4.03;;;12.40;99.90;;;;;;4975563;28;20643;-76
2023/07/22 02:00:50;;;;;;;7.13;4.25;;;12.50;99.90;;;;;;4974989;28;20243;-76
2023/07/22 02:03:21;;;;;;;8.80;4.45;;;12.50;99.90;;;;;;4975274;28;20173;-76
2023/07/22 02:05:47;;;;;;;6.05;3.90;;;12.60;99.90;;;;;;4975859;28;20197;-76
2023/07/22 02:08:12;;;;;;;7.93;4.45;;;12.50;99.90;;;;;;4975277;28;20200;-76
2023/07/22 02:10:38;;;;;;;12.75;4.22;;;12.60;99.90;;;;;;4975191;28;20177;-76
2023/07/22 02:13:04;;;;;;;13.63;4.40;;;12.50;99.90;;;;;;4974486;28;20300;-76
2023/07/22 02:15:30;;;;;;;7.80;3.80;;;12.50;99.90;;;;;;4973985;28;20196;-76
2023/07/22 02:17:56;;;;;;;11.65;4.50;;;12.30;99.90;;;;;;4975582;28;20188;-76
2023/07/22 02:20:22;;;;;;;11.27;4.88;;;12.30;99.90;;;;;;4975148;28;20212;-76
2023/07/22 02:22:47;;;;;;;10.48;4.93;;;12.20;99.90;;;;;;4975534;28;20220;-76
2023/07/22 02:25:14;;;;;;;17.23;4.50;;;12.10;99.90;;;;;;4974223;28;20212;-76
2023/07/22 02:27:40;;;;;;;10.60;5.55;;;12.00;99.90;;;;;;4974304;28;20248;-76
2023/07/22 02:30:10;;;;;;;11.07;5.40;;;11.90;99.90;;;;;;4975292;28;20176;-76
2023/07/22 02:32:39;;;;;;;11.10;4.95;;;11.90;99.90;;;;;;4974103;28;20208;-76
2023/07/22 02:35:09;;;;;;;18.08;5.05;;;11.90;99.90;;;;;;4974072;28;20674;-76
2023/07/22 02:37:37;;;;;;;16.25;4.65;;;11.90;99.90;;;;;;4975196;28;20201;-76
2023/07/22 02:40:12;;;;;;;12.02;4.30;;;11.90;99.90;;;;;;4973879;28;20208;-76
2023/07/22 02:42:39;;;;;;;10.75;4.53;;;11.80;99.90;;;;;;4973900;28;20650;-76
2023/07/22 02:45:05;;;;;;;8.43;4.60;;;11.80;99.90;;;;;;4973861;28;20173;-76
2023/07/22 02:47:33;;;;;;;10.93;4.80;;;11.70;99.90;;;;;;4975040;28;20189;-76
2023/07/22 02:49:59;;;;;;;11.65;5.13;;;11.70;99.90;;;;;;4974600;28;20189;-76
2023/07/22 02:52:24;;;;;;;8.73;5.40;;;11.60;99.90;;;;;;4974940;28;20251;-76
2023/07/22 02:55:20;;;;;;;7.82;5.47;;;11.60;99.90;;;;;;4973634;28;20185;-76
2023/07/22 02:57:46;;;;;;;13.10;5.60;;;11.60;99.90;;;;;;4957622;28;20208;-76
2023/07/22 03:00:13;;;;;;;9.60;5.25;;;11.50;99.90;;;;;;4974563;28;20259;-76
2023/07/22 03:02:41;;;;;;;11.50;5.40;;;11.50;99.90;;;;;;4975048;28;20224;-76
2023/07/22 03:05:08;;;;;;;11.85;5.75;;;11.50;99.90;;;;;;4973946;28;20651;-76
2023/07/22 03:07:35;;;;;;;10.60;5.75;;;11.50;99.90;;;;;;4973445;28;20207;-76
2023/07/22 03:10:00;;;;;;;11.88;6.05;;;11.50;99.90;;;;;;4973564;28;20674;-76
2023/07/22 03:12:27;;;;;;;8.48;6.35;;;11.40;99.90;;;;;;4973822;28;20184;-76
2023/07/22 03:14:53;;;;;;;7.05;6.10;;;11.40;99.90;;;;;;4974570;28;20232;-76
2023/07/22 03:17:19;;;;;;;8.20;6.20;;;11.40;99.90;;;;;;4973855;28;20691;-76
2023/07/22 03:19:45;;;;;;;10.23;5.93;;;11.40;99.90;;;;;;4973537;28;20209;-76
2023/07/22 03:22:13;;;;;;;8.30;5.78;;;11.40;99.90;;;;;;4973715;28;20189;-76
2023/07/22 03:24:39;;;;;;;8.05;5.88;;;11.30;99.90;;;;;;4973358;28;20197;-76
2023/07/22 03:27:06;;;;;;;9.38;5.38;;;11.30;99.90;;;;;;4976115;28;20220;-76
2023/07/22 03:29:32;;;;;;;7.97;5.20;;;11.20;99.90;;;;;;4977473;28;20181;-76
2023/07/22 03:31:57;;;;;;;9.50;5.20;;;11.20;99.90;;;;;;4977759;28;20196;-76
2023/07/22 03:34:23;;;;;;;17.10;5.93;;;11.20;99.90;;;;;;4978107;28;20655;-76
2023/07/22 03:36:49;;;;;;;9.75;5.20;;;11.20;99.90;;;;;;4978697;28;20196;-76
2023/07/22 03:39:14;;;;;;;9.50;5.10;;;11.20;99.90;;;;;;4977208;28;20193;-76
2023/07/22 03:41:40;;;;;;;7.13;5.68;;;11.20;99.90;;;;;;4977425;28;20188;-76
2023/07/22 03:44:06;;;;;;;8.40;5.68;;;11.20;99.90;;;;;;4977713;28;20268;-76
2023/07/22 03:46:31;;;;;;;11.55;5.50;;;11.10;99.90;;;;;;4977031;28;20196;-76
2023/07/22 03:48:57;;;;;;;9.20;6.07;;;11.00;99.90;;;;;;4977016;28;20177;-76
2023/07/22 03:51:22;;;;;;;7.90;6.47;;;11.00;99.90;;;;;;4977798;28;20200;-76
2023/07/22 03:53:48;;;;;;;12.95;5.85;;;11.00;99.90;;;;;;4977292;28;20185;-76
2023/07/22 03:56:13;;;;;;;8.38;5.85;;;11.00;99.90;;;;;;4976867;28;20224;-76
2023/07/22 04:02:01;;;;;;;12.10;5.97;;;10.90;99.90;;;;;;4978415;28;20184;-76
2023/07/22 04:04:27;;;;;;;10.40;6.07;;;10.90;99.90;;;;;;4976766;28;20179;-76
2023/07/22 04:06:52;;;;;;;8.38;5.78;;;10.90;99.90;;;;;;4976569;28;20201;-76
2023/07/22 04:09:18;;;;;;;11.77;6.60;;;11.00;99.90;;;;;;4977831;28;20651;-76
2023/07/22 04:11:43;;;;;;;8.65;6.57;;;11.00;99.90;;;;;;4976645;28;20647;-76
2023/07/22 04:14:09;;;;;;;9.55;5.85;;;10.90;99.90;;;;;;4976573;28;20177;-76
2023/07/22 04:16:34;;;;;;;6.68;5.93;;;11.00;99.90;;;;;;4976662;28;20223;-76
2023/07/22 04:19:01;;;;;;;10.23;5.95;;;11.10;99.90;;;;;;4977750;28;20187;-76
2023/07/22 04:21:26;;;;;;;10.10;6.82;;;11.10;99.90;;;;;;4977604;28;20205;-76
2023/07/22 04:23:53;;;;;;;12.02;6.25;;;11.20;99.90;;;;;;4976542;28;20184;-76
2023/07/22 04:26:18;;;;;;;10.07;5.88;;;11.20;99.90;;;;;;4976615;28;20231;-76
2023/07/22 04:28:44;;;;;;;11.98;6.25;;;11.10;99.90;;;;;;4976986;28;20208;-76
2023/07/22 04:31:10;;;;;;;9.63;7.13;;;11.10;99.90;;;;;;4976404;28;20185;-76
2023/07/22 04:33:35;;;;;;;7.30;6.60;;;11.30;99.90;;;;;;4977823;28;20184;-76
2023/07/22 04:36:01;;;;;;;11.48;6.93;;;11.40;99.90;;;;;;4976156;28;20262;-76
2023/07/22 04:38:26;;;;;;;10.20;7.30;;;11.40;99.90;;;;;;4975509;28;20185;-76
2023/07/22 04:40:52;;;;;;;10.57;6.70;;;11.50;99.90;;;;;;4976099;28;20201;-76
2023/07/22 04:43:17;;;;;;;12.07;7.20;;;11.60;99.90;;;;;;4976363;28;20177;-76
2023/07/22 04:45:47;;;;;;;10.10;6.35;;;11.70;99.90;;;;;;4976379;28;20207;-76
2023/07/22 04:48:19;;;;;;;9.43;6.75;;;11.80;99.90;;;;;;4976916;28;20267;-76
2023/07/22 04:50:45;;;;;;;8.52;6.30;;;11.90;99.90;;;;;;4976814;28;20180;-76
2023/07/22 04:53:12;;;;;;;10.05;7.03;;;12.00;99.90;;;;;;4977102;28;20240;-76
2023/07/22 04:55:39;;;;;;;6.85;6.15;;;12.10;99.90;;;;;;4976262;28;20185;-76
2023/07/22 04:58:05;;;;;;;10.82;5.70;;;12.20;99.90;;;;;;4975855;28;20177;-75
2023/07/22 05:00:30;;;;;;;10.43;6.50;;;12.40;99.90;;;;;;4976626;28;20211;-75
2023/07/22 05:02:56;;;;;;;9.02;6.20;;;12.50;99.90;;;;;;4975887;28;20184;-75
2023/07/22 05:05:22;;;;;;;8.50;6.07;;;12.60;99.90;;;;;;4975982;28;20177;-75
2023/07/22 05:07:49;;;;;;;6.03;5.40;;;12.90;99.90;;;;;;4976114;28;20185;-75
2023/07/22 05:10:15;;;;;;;10.88;5.93;;;13.00;99.90;;;;;;4976818;28;20185;-75
2023/07/22 05:12:42;;;;;;;6.65;5.70;;;13.10;99.90;;;;;;4976454;28;20202;-76
2023/07/22 05:15:11;;;;;;;9.48;6.10;;;13.10;99.90;;;;;;4976050;28;20240;-76
2023/07/22 05:17:45;;;;;;;11.68;6.40;;;13.30;99.90;;;;;;4975943;28;20217;-75
2023/07/22 05:20:10;;;;;;;7.75;6.25;;;13.40;99.90;;;;;;4975671;28;20194;-75
2023/07/22 05:22:37;;;;;;;9.73;6.18;;;13.60;99.90;;;;;;4975963;28;20207;-75
2023/07/22 05:25:20;;;;;;;10.20;6.80;;;13.60;99.90;;;;;;4975826;28;20279;-75
2023/07/22 05:27:46;;;;;;;8.45;6.78;;;13.70;99.90;;;;;;4976421;28;20227;-75
2023/07/22 05:30:11;;;;;;;7.88;7.07;;;13.80;99.90;;;;;;4975785;28;20185;-75
2023/07/22 05:32:37;;;;;;;8.23;6.97;;;13.90;99.90;;;;;;4975483;28;20188;-75
2023/07/22 05:35:04;;;;;;;7.03;6.22;;;14.00;99.90;;;;;;4975904;28;20180;-75
2023/07/22 05:37:31;;;;;;;8.65;7.07;;;14.10;99.90;;;;;;4975231;28;20204;-75
2023/07/22 05:39:56;;;;;;;11.30;7.25;;;14.10;99.90;;;;;;4975536;28;20204;-75
2023/07/22 05:42:22;;;;;;;13.95;7.55;;;14.20;99.90;;;;;;4976362;28;20181;-75
2023/07/22 05:44:48;;;;;;;7.75;6.97;;;14.30;99.90;;;;;;4975163;28;20177;-75
2023/07/22 05:47:13;;;;;;;9.80;7.15;;;14.40;99.90;;;;;;4975299;28;20224;-75
2023/07/22 05:49:41;;;;;;;8.05;7.00;;;14.40;99.90;;;;;;4974046;28;20177;-75
2023/07/22 05:52:07;;;;;;;9.55;7.30;;;14.50;99.90;;;;;;4975009;28;20185;-75
2023/07/22 05:54:33;;;;;;;9.00;6.88;;;14.50;99.90;;;;;;4975010;28;20192;-75
2023/07/22 05:56:58;;;;;;;11.85;7.63;;;14.60;99.90;;;;;;4975261;28;20737;-75
2023/07/22 05:59:24;;;;;;;8.25;7.32;;;14.60;99.90;;;;;;4975823;28;20249;-75
2023/07/22 06:01:51;;;;;;;9.05;7.35;;;14.70;99.90;;;;;;4974713;28;20189;-75
2023/07/22 06:04:16;;;;;;;8.23;7.05;;;14.80;99.90;;;;;;4974718;28;20177;-75
2023/07/22 06:06:42;;;;;;;8.27;7.40;;;14.90;99.90;;;;;;4974548;28;20254;-76
2023/07/22 06:09:07;;;;;;;11.23;7.20;;;15.00;99.90;;;;;;4975610;28;20259;-76
2023/07/22 06:11:33;;;;;;;7.93;6.88;;;15.20;99.90;;;;;;4975794;28;20259;-76
2023/07/22 06:13:58;;;;;;;8.95;7.53;;;15.30;99.90;;;;;;4975085;28;20191;-76
2023/07/22 06:16:24;;;;;;;9.02;7.15;;;15.30;99.90;;;;;;4974165;28;20282;-76
2023/07/22 06:18:49;;;;;;;8.27;6.97;;;15.40;99.90;;;;;;4974557;28;20177;-76
2023/07/22 06:21:32;;;;;;;9.70;6.95;;;15.50;99.90;;;;;;4974398;28;20247;-76
2023/07/22 06:23:57;;;;;;;10.02;7.50;;;15.60;99.90;;;;;;4976199;28;20199;-76
2023/07/22 06:26:23;;;;;;;8.48;7.35;;;15.80;99.90;;;;;;4975351;28;20236;-76
2023/07/22 06:28:48;;;;;;;9.90;7.38;;;16.00;99.90;;;;;;4974275;28;20228;-76
2023/07/22 06:31:14;;;;;;;9.32;7.25;;;16.00;99.90;;;;;;4974516;28;20184;-76
2023/07/22 06:33:40;;;;;;;7.85;6.68;;;16.30;99.90;;;;;;4974411;28;20184;-76
2023/07/22 06:36:05;;;;;;;9.20;7.38;;;16.50;99.90;;;;;;4973871;28;20240;-76
2023/07/22 06:38:31;;;;;;;8.55;6.93;;;16.70;99.90;;;;;;4975586;28;20187;-76
2023/07/22 06:40:57;;;;;;;10.90;6.60;;;17.20;99.90;;;;;;4974154;28;20271;-76
2023/07/22 06:43:23;;;;;;;10.43;6.80;;;17.90;99.90;;;;;;4974754;28;20173;-76
2023/07/22 06:45:48;;;;;;;11.63;6.22;;;18.60;99.90;;;;;;4974006;28;20193;-76
2023/07/22 06:48:14;;;;;;;7.40;6.25;;;19.10;99.90;;;;;;4973920;28;20710;-76
2023/07/22 06:50:39;;;;;;;9.45;6.75;;;19.70;99.90;;;;;;4973923;28;20181;-76
2023/07/22 06:53:05;;;;;;;14.80;6.90;;;20.20;99.90;;;;;;4973893;28;20562;-76
2023/07/22 06:55:30;;;;;;;10.13;6.10;;;20.20;99.90;;;;;;4973616;28;20566;-76
2023/07/22 06:57:57;;;;;;;9.63;6.63;;;19.90;99.90;;;;;;4974938;28;20623;-76
2023/07/22 07:00:22;;;;;;;7.38;6.53;;;19.60;99.90;;;;;;4973445;28;20216;-76
2023/07/22 07:02:48;;;;;;;8.65;6.50;;;19.30;99.90;;;;;;4973785;28;20172;-76
2023/07/22 07:05:13;;;;;;;8.15;7.00;;;19.00;99.90;;;;;;4973821;28;20208;-76
2023/07/22 07:07:40;;;;;;;11.23;6.28;;;18.80;99.90;;;;;;4974855;28;20199;-76
2023/07/22 07:10:06;;;;;;;11.77;6.70;;;18.70;99.90;;;;;;4973712;28;20181;-76
2023/07/22 07:12:33;;;;;;;7.22;6.05;;;18.50;99.90;;;;;;4974078;28;20280;-76
2023/07/22 07:14:59;;;;;;;8.13;6.18;;;18.50;99.90;;;;;;4975056;28;20251;-76
2023/07/22 07:17:25;;;;;;;8.57;6.00;;;18.40;99.90;;;;;;4973767;28;20220;-76
2023/07/22 07:19:50;;;;;;;7.63;6.00;;;18.40;99.90;;;;;;4973579;28;20212;-76
2023/07/22 07:22:16;;;;;;;7.03;6.38;;;18.50;99.90;;;;;;4973574;28;20264;-76
2023/07/22 07:24:44;;;;;;;7.63;6.00;;;18.50;99.90;;;;;;4973711;28;20181;-76
2023/07/22 07:27:09;;;;;;;8.68;6.47;;;18.50;99.90;;;;;;4974756;28;20200;-76
2023/07/22 07:29:35;;;;;;;10.85;6.93;;;18.50;99.90;;;;;;4974228;28;20268;-76
2023/07/22 07:32:00;;;;;;;7.50;6.63;;;18.60;99.90;;;;;;4973785;28;20183;-76
2023/07/22 07:34:26;;;;;;;8.45;6.35;;;18.70;99.90;;;;;;4973739;28;20213;-76
2023/07/22 07:36:51;;;;;;;9.55;7.55;;;18.70;99.90;;;;;;4974328;28;20201;-76
2023/07/22 07:39:17;;;;;;;7.85;6.65;;;18.70;99.90;;;;;;4974856;28;20626;-76
2023/07/22 07:41:42;;;;;;;8.07;7.28;;;18.80;99.90;;;;;;4973666;28;20208;-76
2023/07/22 07:44:08;;;;;;;10.32;7.38;;;19.00;99.90;;;;;;4973791;28;20176;-76
2023/07/22 07:46:33;;;;;;;8.95;6.45;;;19.00;99.80;;;;;;4973684;28;20200;-76
2023/07/22 07:49:01;;;;;;;10.35;6.47;;;19.00;99.40;;;;;;4973958;28;20183;-77
2023/07/22 07:51:27;;;;;;;7.60;6.32;;;19.00;98.00;;;;;;4973656;28;20177;-76
2023/07/22 07:53:54;;;;;;;8.52;6.03;;;19.00;97.10;;;;;;4973836;28;20244;-76
2023/07/22 07:56:20;;;;;;;7.43;5.80;;;19.10;97.70;;;;;;4974007;28;20204;-76
2023/07/22 07:58:47;;;;;;;6.47;5.88;;;19.10;97.50;;;;;;4973800;28;20236;-76
2023/07/22 08:01:13;;;;;;;7.05;6.35;;;19.20;96.10;;;;;;4973731;28;20308;-77
2023/07/22 08:04:24;;;;;;;7.82;6.00;;;19.30;96.00;;;;;;4973947;28;20219;-76
2023/07/22 08:07:05;;;;;;;10.15;6.97;;;19.40;96.30;;;;;;4974535;28;20197;-76
2023/07/22 08:09:31;;;;;;;7.03;6.40;;;19.50;96.40;;;;;;4974558;28;20171;-76
2023/07/22 08:11:57;;;;;;;8.25;7.07;;;19.70;96.00;;;;;;4973976;28;20180;-76
2023/07/22 08:14:23;;;;;;;7.70;6.53;;;19.70;94.90;;;;;;4976633;28;20181;-76
2023/07/22 08:16:48;;;;;;;8.07;6.47;;;19.70;95.10;;;;;;4977319;28;20569;-76
2023/07/22 08:19:37;;;;;;;8.27;5.95;;;19.80;94.80;;;;;;4978089;28;20199;-76
2023/07/22 08:22:02;;;;;;;9.32;5.68;;;19.90;93.90;;;;;;4977294;28;20181;-76
2023/07/22 08:24:28;;;;;;;5.60;5.10;;;20.10;93.60;;;;;;4977064;28;20180;-76
2023/07/22 08:26:53;;;;;;;6.82;5.20;;;20.30;92.50;;;;;;4977186;28;20285;-76
2023/07/22 08:29:19;;;;;;;6.28;5.28;;;20.40;92.50;;;;;;4977098;28;20185;-76
2023/07/22 08:31:45;;;;;;;9.65;5.10;;;20.40;92.70;;;;;;4976881;28;20178;-76
2023/07/22 08:34:10;;;;;;;5.28;4.80;;;20.40;91.80;;;;;;4978098;28;20276;-76
2023/07/22 08:37:01;;;;;;;6.78;5.22;;;20.30;90.80;;;;;;4977180;28;20247;-76
2023/07/22 08:39:26;;;;;;;9.20;4.78;;;20.30;90.50;;;;;;4976907;28;20628;-76
2023/07/22 08:41:54;;;;;;;5.72;5.10;;;20.50;91.20;;;;;;4977495;28;20185;-76
2023/07/22 08:44:20;;;;;;;5.32;4.82;;;20.90;89.60;;;;;;4976553;28;20219;-76
2023/07/22 08:46:47;;;;;;;5.30;4.80;;;21.30;87.50;;;;;;4976574;28;20679;-76
2023/07/22 08:49:13;;;;;;;4.68;4.20;;;21.50;87.50;;;;;;4976926;28;20228;-76
2023/07/22 08:51:39;;;;;;;4.93;4.50;;;21.80;87.80;;;;;;4976204;28;20191;-76
2023/07/22 08:54:06;;;;;;;8.48;4.50;;;21.90;88.00;;;;;;4976552;28;20643;-76
2023/07/22 08:56:32;;;;;;;6.75;4.63;;;22.10;88.50;;;;;;4977014;28;20292;-76
2023/07/22 08:59:12;;;;;;;7.13;4.53;;;22.60;87.40;;;;;;4975956;28;20185;-76
2023/07/22 09:01:39;;;;;;;5.07;4.45;;;22.70;85.30;;;;;;4975995;28;20205;-76
2023/07/22 09:04:05;;;;;;;6.85;4.82;;;22.80;83.00;;;;;;4976112;28;20620;-76
2023/07/22 09:06:35;;;;;;;4.90;4.50;;;22.70;82.80;;;;;;4975667;28;20288;-77
2023/07/22 09:09:07;;;;;;;7.80;4.60;;;22.50;82.10;;;;;;4975670;28;20166;-77
2023/07/22 09:11:33;;;;;;;5.22;4.82;;;22.20;82.90;;;;;;4976487;28;20284;-77
2023/07/22 09:14:01;;;;;;;6.35;5.03;;;21.80;81.20;;;;;;4976146;28;20192;-77
2023/07/22 09:16:27;;;;;;;6.13;4.63;;;21.70;84.00;;;;;;4975295;28;20247;-77
2023/07/22 09:18:56;;;;;;;4.90;4.30;;;21.50;84.80;;;;;;4975866;28;20177;-77
2023/07/22 09:21:22;;;;;;;4.57;4.15;;;21.30;87.70;;;;;;4975691;28;20208;-76
2023/07/22 09:23:48;;;;;;;6.40;4.55;;;21.30;87.60;;;;;;4975289;28;20181;-77
2023/07/22 09:26:18;;;;;;;4.82;4.38;;;21.50;86.20;;;;;;4975727;28;20767;-76
2023/07/22 09:29:00;;;;;;;7.70;4.47;;;21.80;83.30;;;;;;4976897;28;20165;-77
2023/07/22 09:31:28;;;;;;;4.65;4.18;;;22.50;83.70;;;;;;4976168;28;20173;-77
2023/07/22 09:33:54;;;;;;;5.30;4.22;;;23.00;82.00;;;;;;4976322;28;20184;-77
2023/07/22 09:36:20;;;;;;;4.32;4.03;;;23.10;79.60;;;;;;4975206;28;20223;-76
2023/07/22 09:38:57;;;;;;;4.88;4.40;;;23.00;78.10;;;;;;4975111;28;20180;-76
2023/07/22 09:41:28;;;;;;;6.57;4.20;;;22.90;76.80;;;;;;4976176;28;20192;-76
2023/07/22 09:43:54;;;;;;;4.45;4.15;;;22.60;76.80;;;;;;4975145;28;20173;-76
2023/07/22 09:46:19;;;;;;;5.70;4.40;;;22.30;78.70;;;;;;4975114;28;20196;-77
2023/07/22 09:48:46;;;;;;;6.18;4.22;;;22.10;78.60;;;;;;4974787;28;20595;-77
2023/07/22 09:51:13;;;;;;;4.93;4.03;;;21.90;78.40;;;;;;4976014;28;20177;-77
2023/07/22 09:53:44;;;;;;;4.90;4.40;;;21.60;79.10;;;;;;4975676;28;20181;-77
2023/07/22 09:56:10;;;;;;;4.68;3.97;;;21.40;80.50;;;;;;4975124;28;20205;-77
2023/07/22 09:58:37;;;;;;;7.85;4.47;;;21.70;81.30;;;;;;4975533;28;20508;-77
2023/07/22 10:01:33;;;;;;;6.30;4.25;;;22.10;79.10;;;;;;4974906;28;20216;-77
2023/07/22 10:04:00;;;;;;;5.07;4.20;;;22.70;79.00;;;;;;4974607;28;20621;-77
2023/07/22 10:06:37;;;;;;;6.00;4.30;;;22.90;77.70;;;;;;4974825;28;20197;-77
2023/07/22 10:09:07;;;;;;;7.68;4.32;;;23.10;75.70;;;;;;4975647;28;20172;-77
2023/07/22 10:11:35;;;;;;;5.63;4.20;;;23.20;74.80;;;;;;4975418;28;20177;-77
2023/07/22 10:14:05;;;;;;;6.50;4.07;;;23.20;75.00;;;;;;4975209;28;20176;-77
2023/07/22 10:16:31;;;;;;;8.77;4.20;;;23.20;74.30;;;;;;4974905;28;20216;-77
2023/07/22 10:18:59;;;;;;;10.55;4.25;;;23.00;74.30;;;;;;4974847;28;20181;-77
2023/07/22 10:21:25;;;;;;;4.45;3.72;;;22.80;74.50;;;;;;4974835;28;20261;-77
2023/07/22 10:23:51;;;;;;;5.03;4.25;;;22.60;76.20;;;;;;4974965;28;20183;-78
2023/07/22 10:26:18;;;;;;;8.00;3.90;;;22.50;76.40;;;;;;4974641;28;20193;-77
2023/07/22 10:29:10;;;;;;;4.30;3.67;;;22.80;76.50;;;;;;4975140;28;20185;-77
2023/07/22 10:31:35;;;;;;;12.73;3.92;;;23.10;76.00;;;;;;4974338;28;20180;-77
2023/07/22 10:34:01;;;;;;;8.00;3.92;;;23.30;73.50;;;;;;4974387;28;20573;-77
2023/07/22 10:36:30;;;;;;;12.52;4.03;;;23.70;71.80;;;;;;4974842;28;20251;-77
2023/07/22 10:38:57;;;;;;;4.07;3.78;;;23.80;70.80;;;;;;4974822;28;20670;-77
2023/07/22 10:41:23;;;;;;;4.10;3.60;;;24.10;70.70;;;;;;4974510;28;20205;-77
2023/07/22 10:43:56;;;;;;;5.25;3.72;;;24.30;70.30;;;;;;4975773;28;20177;-78
2023/07/22 10:46:38;;;;;;;11.05;4.20;;;24.50;69.50;;;;;;4974625;28;20231;-77
2023/07/22 10:49:13;;;;;;;5.22;4.18;;;24.60;68.60;;;;;;4975858;28;20199;-78
2023/07/22 10:51:39;;;;;;;5.20;3.50;;;24.70;68.10;;;;;;4975078;28;20259;-77
2023/07/22 10:54:30;;;;;;;5.10;3.47;;;24.70;66.70;;;;;;4974872;28;20610;-78
2023/07/22 10:56:56;;;;;;;3.75;3.38;;;24.60;65.20;;;;;;4974180;28;20619;-77
2023/07/22 10:59:27;;;;;;;5.13;3.90;;;24.30;66.60;;;;;;4974878;28;20189;-77
2023/07/22 11:02:07;;;;;;;4.30;3.90;;;24.30;65.80;;;;;;4975323;28;20283;-77
2023/07/22 11:04:34;;;;;;;6.78;3.75;;;24.40;66.50;;;;;;4973970;28;20161;-77
2023/07/22 11:07:04;;;;;;;4.13;3.70;;;24.50;66.30;;;;;;4973704;28;20283;-77
2023/07/22 11:12:00;;;;;;;5.60;3.35;;;24.50;64.70;;;;;;4975462;28;20519;-78
2023/07/22 11:14:27;;;;;;;6.85;3.80;;;24.50;63.00;;;;;;4974011;28;20188;-78
2023/07/22 11:16:54;;;;;;;8.25;3.65;;;24.80;64.90;;;;;;4973651;28;20224;-78
2023/07/22 11:19:23;;;;;;;3.78;3.38;;;24.80;64.50;;;;;;4974773;28;20207;-77
2023/07/22 11:21:50;;;;;;;7.65;3.88;;;24.80;62.90;;;;;;4974030;28;20205;-77
2023/07/22 11:24:16;;;;;;;4.60;3.65;;;24.90;63.10;;;;;;4973675;28;20651;-77
2023/07/22 11:26:42;;;;;;;5.35;3.83;;;24.60;63.10;;;;;;4973945;28;20211;-77
2023/07/22 11:29:09;;;;;;;4.95;3.88;;;24.30;63.80;;;;;;4974512;28;20263;-77
2023/07/22 11:31:47;;;;;;;4.72;3.63;;;24.10;65.30;;;;;;4973950;28;20188;-76
2023/07/22 11:34:18;;;;;;;8.48;4.05;;;24.10;64.60;;;;;;4974386;28;20173;-76
2023/07/22 11:36:44;;;;;;;4.40;3.50;;;24.10;64.30;;;;;;4973917;28;20200;-77
2023/07/22 11:39:15;;;;;;;5.82;5.22;;;23.90;64.90;;;;;;4973917;28;20283;-77
2023/07/22 11:41:51;;;;;;;7.65;6.22;;;24.10;64.40;;;;;;4974641;28;20220;-77
2023/07/22 11:44:19;;;;;;;5.78;4.22;;;24.10;65.40;;;;;;4974100;28;20172;-77
2023/07/22 11:46:56;;;;;;;4.30;4.00;;;24.60;65.70;;;;;;4974747;28;20197;-77
2023/07/22 11:49:31;;;;;;;6.10;3.92;;;24.60;63.70;;;;;;4977531;28;20187;-77
2023/07/22 11:52:17;;;;;;;8.38;4.00;;;24.90;62.80;;;;;;4977915;28;20164;-77
2023/07/22 11:54:44;;;;;;;8.35;3.72;;;24.80;61.70;;;;;;4977537;28;20188;-77
2023/07/22 11:57:19;;;;;;;4.15;3.58;;;24.70;62.90;;;;;;4977472;28;20193;-77
2023/07/22 11:59:47;;;;;;;5.60;3.70;;;24.60;62.90;;;;;;4977448;28;20176;-77
2023/07/22 12:02:19;;;;;;;4.00;3.42;;;24.40;64.50;;;;;;4977181;28;20208;-77
2023/07/22 12:05:01;;;;;;;3.65;3.35;;;24.30;64.00;;;;;;4976998;28;20187;-77
2023/07/22 12:07:27;;;;;;;5.45;3.53;;;24.50;64.60;;;;;;4977364;28;20193;-77
2023/07/22 12:09:54;;;;;;;4.03;3.72;;;24.70;62.70;;;;;;4962801;28;20537;-77
2023/07/22 12:12:20;;;;;;;4.30;4.00;;;24.70;62.40;;;;;;4974548;28;20249;-77
2023/07/22 12:14:46;;;;;;;4.88;4.10;;;24.70;61.70;;;;;;4957707;28;20178;-77
2023/07/22 12:17:11;;;;;;;4.68;4.00;;;24.80;62.30;;;;;;4966775;28;20224;-77
2023/07/22 12:19:37;;;;;;;4.55;3.70;;;25.10;62.10;;;;;;4970109;28;20192;-77
2023/07/22 12:22:03;;;;;;;4.28;3.40;;;25.20;60.80;;;;;;4978395;28;20177;-77
2023/07/22 12:24:30;;;;;;;4.38;3.60;;;25.20;61.20;;;;;;4976875;28;20173;-77
2023/07/22 12:26:55;;;;;;;4.07;3.45;;;25.30;61.10;;;;;;4976775;28;20295;-77
2023/07/22 12:29:22;;;;;;;4.13;3.45;;;25.20;58.60;;;;;;4977319;28;20208;-77
2023/07/22 12:31:47;;;;;;;4.38;3.35;;;25.10;60.90;;;;;;4977983;28;20268;-77
2023/07/22 12:34:13;;;;;;;3.88;3.58;;;25.20;60.10;;;;;;4976891;28;20239;-76
2023/07/22 12:36:40;;;;;;;5.68;3.35;;;25.50;59.50;;;;;;4972490;28;20204;-77
2023/07/22 12:39:05;;;;;;;4.43;3.13;;;26.00;59.50;;;;;;4972893;28;20208;-77
2023/07/22 12:41:31;;;;;;;4.15;3.75;;;26.30;58.00;;;;;;4975998;28;20306;-77
2023/07/22 12:44:05;;;;;;;4.65;3.50;;;26.40;57.20;;;;;;4975850;28;20184;-77
2023/07/22 12:46:30;;;;;;;6.07;3.30;;;26.60;56.90;;;;;;4975504;28;20691;-77
2023/07/22 12:48:59;;;;;;;3.75;3.10;;;26.60;56.70;;;;;;4975813;28;20188;-77
2023/07/22 12:51:55;;;;;;;4.40;3.17;;;26.50;57.10;;;;;;4975896;28;20165;-77
2023/07/22 12:54:45;;;;;;;5.07;3.72;;;26.10;57.10;;;;;;4975308;28;20197;-77
2023/07/22 12:57:32;;;;;;;5.65;3.80;;;25.90;58.40;;;;;;4974263;28;20766;-76
2023/07/22 13:00:12;;;;;;;4.00;3.28;;;25.80;59.30;;;;;;4963927;28;20272;-77
2023/07/22 13:02:43;;;;;;;3.60;3.30;;;25.80;58.50;;;;;;4976132;28;20173;-77
2023/07/22 13:05:09;;;;;;;3.92;3.40;;;25.70;58.40;;;;;;4975107;28;20181;-77
2023/07/22 13:08:17;;;;;;;3.95;3.65;;;25.60;58.50;;;;;;4977401;28;20193;-77
2023/07/22 13:10:45;;;;;;;4.35;3.88;;;25.60;58.40;;;;;;4957860;29;20162;-77
2023/07/22 13:13:10;;;;;;;4.45;4.05;;;25.60;58.30;;;;;;4963298;28;20185;-77
2023/07/22 13:15:36;;;;;;;5.03;4.15;;;25.70;58.60;;;;;;4973456;28;20181;-77